sensor_id;sensor_type;location;lat;lon;timestamp;P1;durP1;ratioP1;P2;durP2;ratioP2
73650;SDS011;61944;52.538;6.108;2023-04-29T00:00:25;51.72;;;25.30;;
73650;SDS011;61944;52.538;6.108;2023-04-29T00:02:51;43.92;;;23.92;;
73650;SDS011;61944;52.538;6.108;2023-04-29T00:05:16;50.72;;;24.88;;
73650;SDS011;61944;52.538;6.108;2023-04-29T00:07:42;52.33;;;25.52;;
73650;SDS011;61944;52.538;6.108;2023-04-29T00:10:07;44.97;;;21.52;;
73650;SDS011;61944;52.538;6.108;2023-04-29T00:12:33;43.53;;;22.95;;
73650;SDS011;61944;52.538;6.108;2023-04-29T00:14:58;47.08;;;22.70;;
73650;SDS011;61944;52.538;6.108;2023-04-29T00:17:24;54.88;;;23.50;;
73650;SDS011;61944;52.538;6.108;2023-04-29T00:19:50;42.38;;;22.60;;
73650;SDS011;61944;52.538;6.108;2023-04-29T00:22:15;60.50;;;26.05;;
73650;SDS011;61944;52.538;6.108;2023-04-29T00:24:41;51.58;;;24.27;;
73650;SDS011;61944;52.538;6.108;2023-04-29T00:27:07;56.15;;;25.38;;
73650;SDS011;61944;52.538;6.108;2023-04-29T00:29:32;44.20;;;23.17;;
73650;SDS011;61944;52.538;6.108;2023-04-29T00:31:57;45.92;;;22.15;;
73650;SDS011;61944;52.538;6.108;2023-04-29T00:34:23;49.97;;;24.17;;
73650;SDS011;61944;52.538;6.108;2023-04-29T00:36:48;51.60;;;23.20;;
73650;SDS011;61944;52.538;6.108;2023-04-29T00:39:14;42.20;;;22.45;;
73650;SDS011;61944;52.538;6.108;2023-04-29T00:41:40;45.85;;;23.70;;
73650;SDS011;61944;52.538;6.108;2023-04-29T00:44:05;50.80;;;23.55;;
73650;SDS011;61944;52.538;6.108;2023-04-29T00:46:31;48.22;;;24.15;;
73650;SDS011;61944;52.538;6.108;2023-04-29T00:48:57;47.67;;;23.42;;
73650;SDS011;61944;52.538;6.108;2023-04-29T00:51:23;49.83;;;21.95;;
73650;SDS011;61944;52.538;6.108;2023-04-29T00:53:48;55.13;;;24.50;;
73650;SDS011;61944;52.538;6.108;2023-04-29T00:56:14;51.08;;;25.58;;
73650;SDS011;61944;52.538;6.108;2023-04-29T00:58:40;46.63;;;22.75;;
73650;SDS011;61944;52.538;6.108;2023-04-29T01:01:09;45.47;;;23.83;;
73650;SDS011;61944;52.538;6.108;2023-04-29T01:03:35;45.90;;;23.38;;
73650;SDS011;61944;52.538;6.108;2023-04-29T01:11:22;52.60;;;23.65;;
73650;SDS011;61944;52.538;6.108;2023-04-29T01:13:58;51.83;;;22.67;;
73650;SDS011;61944;52.538;6.108;2023-04-29T01:16:36;49.70;;;24.58;;
73650;SDS011;61944;52.538;6.108;2023-04-29T01:19:26;46.08;;;23.23;;
73650;SDS011;61944;52.538;6.108;2023-04-29T01:22:19;50.83;;;24.77;;
73650;SDS011;61944;52.538;6.108;2023-04-29T01:24:46;42.33;;;21.25;;
73650;SDS011;61944;52.538;6.108;2023-04-29T01:30:39;39.40;;;20.67;;
73650;SDS011;61944;52.538;6.108;2023-04-29T01:38:22;46.05;;;23.75;;
73650;SDS011;61944;52.538;6.108;2023-04-29T01:43:34;39.28;;;20.05;;
73650;SDS011;61944;52.538;6.108;2023-04-29T01:46:03;38.30;;;20.10;;
73650;SDS011;61944;52.538;6.108;2023-04-29T01:48:30;42.13;;;21.17;;
73650;SDS011;61944;52.538;6.108;2023-04-29T01:50:56;36.08;;;18.38;;
73650;SDS011;61944;52.538;6.108;2023-04-29T01:53:22;38.42;;;19.45;;
73650;SDS011;61944;52.538;6.108;2023-04-29T01:55:47;45.78;;;19.85;;
73650;SDS011;61944;52.538;6.108;2023-04-29T01:58:13;39.10;;;19.40;;
73650;SDS011;61944;52.538;6.108;2023-04-29T02:00:38;40.65;;;19.42;;
73650;SDS011;61944;52.538;6.108;2023-04-29T02:03:03;38.92;;;18.10;;
73650;SDS011;61944;52.538;6.108;2023-04-29T02:05:29;33.08;;;18.88;;
73650;SDS011;61944;52.538;6.108;2023-04-29T02:07:57;31.05;;;17.50;;
73650;SDS011;61944;52.538;6.108;2023-04-29T02:10:23;36.13;;;17.45;;
73650;SDS011;61944;52.538;6.108;2023-04-29T02:12:48;33.42;;;19.23;;
73650;SDS011;61944;52.538;6.108;2023-04-29T02:15:14;32.25;;;16.67;;
73650;SDS011;61944;52.538;6.108;2023-04-29T02:17:39;33.55;;;18.40;;
73650;SDS011;61944;52.538;6.108;2023-04-29T02:20:05;38.97;;;19.30;;
73650;SDS011;61944;52.538;6.108;2023-04-29T02:22:31;39.70;;;17.98;;
73650;SDS011;61944;52.538;6.108;2023-04-29T02:24:57;34.00;;;17.45;;
73650;SDS011;61944;52.538;6.108;2023-04-29T02:27:22;30.90;;;17.20;;
73650;SDS011;61944;52.538;6.108;2023-04-29T02:29:48;30.73;;;16.33;;
73650;SDS011;61944;52.538;6.108;2023-04-29T02:32:14;37.47;;;17.58;;
73650;SDS011;61944;52.538;6.108;2023-04-29T02:34:40;36.75;;;18.42;;
73650;SDS011;61944;52.538;6.108;2023-04-29T02:37:05;32.47;;;17.85;;
73650;SDS011;61944;52.538;6.108;2023-04-29T02:39:30;30.15;;;15.82;;
73650;SDS011;61944;52.538;6.108;2023-04-29T02:41:56;28.83;;;15.70;;
73650;SDS011;61944;52.538;6.108;2023-04-29T02:44:22;32.35;;;16.60;;
73650;SDS011;61944;52.538;6.108;2023-04-29T02:46:48;31.05;;;17.38;;
73650;SDS011;61944;52.538;6.108;2023-04-29T02:49:13;27.15;;;16.40;;
73650;SDS011;61944;52.538;6.108;2023-04-29T02:51:38;32.13;;;16.13;;
73650;SDS011;61944;52.538;6.108;2023-04-29T02:54:05;31.80;;;17.30;;
73650;SDS011;61944;52.538;6.108;2023-04-29T02:56:30;34.70;;;16.83;;
73650;SDS011;61944;52.538;6.108;2023-04-29T02:58:56;32.05;;;15.75;;
73650;SDS011;61944;52.538;6.108;2023-04-29T03:01:21;30.67;;;16.55;;
73650;SDS011;61944;52.538;6.108;2023-04-29T03:03:48;33.33;;;16.23;;
73650;SDS011;61944;52.538;6.108;2023-04-29T03:06:13;34.85;;;17.33;;
73650;SDS011;61944;52.538;6.108;2023-04-29T03:08:40;33.22;;;17.00;;
73650;SDS011;61944;52.538;6.108;2023-04-29T03:11:05;42.58;;;17.10;;
73650;SDS011;61944;52.538;6.108;2023-04-29T03:13:30;30.90;;;16.60;;
73650;SDS011;61944;52.538;6.108;2023-04-29T03:15:56;34.25;;;19.23;;
73650;SDS011;61944;52.538;6.108;2023-04-29T03:18:23;29.98;;;16.35;;
73650;SDS011;61944;52.538;6.108;2023-04-29T03:20:48;33.58;;;17.08;;
73650;SDS011;61944;52.538;6.108;2023-04-29T03:23:14;32.28;;;15.50;;
73650;SDS011;61944;52.538;6.108;2023-04-29T03:25:39;40.30;;;17.95;;
73650;SDS011;61944;52.538;6.108;2023-04-29T03:28:05;34.72;;;18.45;;
73650;SDS011;61944;52.538;6.108;2023-04-29T03:30:31;33.05;;;17.00;;
73650;SDS011;61944;52.538;6.108;2023-04-29T03:32:56;36.60;;;17.00;;
73650;SDS011;61944;52.538;6.108;2023-04-29T03:35:22;27.65;;;15.38;;
73650;SDS011;61944;52.538;6.108;2023-04-29T03:37:47;31.10;;;16.83;;
73650;SDS011;61944;52.538;6.108;2023-04-29T03:40:12;39.30;;;18.13;;
73650;SDS011;61944;52.538;6.108;2023-04-29T03:42:38;31.98;;;18.27;;
73650;SDS011;61944;52.538;6.108;2023-04-29T03:45:04;29.23;;;17.77;;
73650;SDS011;61944;52.538;6.108;2023-04-29T03:47:30;30.98;;;16.42;;
73650;SDS011;61944;52.538;6.108;2023-04-29T03:49:55;39.38;;;18.17;;
73650;SDS011;61944;52.538;6.108;2023-04-29T03:52:21;36.30;;;15.77;;
73650;SDS011;61944;52.538;6.108;2023-04-29T03:54:46;30.17;;;17.05;;
73650;SDS011;61944;52.538;6.108;2023-04-29T03:57:11;35.25;;;16.30;;
73650;SDS011;61944;52.538;6.108;2023-04-29T03:59:37;32.28;;;16.40;;
73650;SDS011;61944;52.538;6.108;2023-04-29T04:02:02;40.80;;;18.30;;
73650;SDS011;61944;52.538;6.108;2023-04-29T04:04:27;30.02;;;15.95;;
73650;SDS011;61944;52.538;6.108;2023-04-29T04:06:53;34.58;;;17.27;;
73650;SDS011;61944;52.538;6.108;2023-04-29T04:09:18;27.92;;;16.25;;
73650;SDS011;61944;52.538;6.108;2023-04-29T04:11:44;32.42;;;16.85;;
73650;SDS011;61944;52.538;6.108;2023-04-29T04:14:09;29.38;;;14.70;;
73650;SDS011;61944;52.538;6.108;2023-04-29T04:16:35;35.75;;;14.85;;
73650;SDS011;61944;52.538;6.108;2023-04-29T04:19:00;34.33;;;17.50;;
73650;SDS011;61944;52.538;6.108;2023-04-29T04:21:26;31.67;;;15.43;;
73650;SDS011;61944;52.538;6.108;2023-04-29T04:23:51;34.40;;;15.40;;
73650;SDS011;61944;52.538;6.108;2023-04-29T04:26:17;29.63;;;16.60;;
73650;SDS011;61944;52.538;6.108;2023-04-29T04:28:44;32.78;;;16.92;;
73650;SDS011;61944;52.538;6.108;2023-04-29T04:31:10;32.22;;;15.85;;
73650;SDS011;61944;52.538;6.108;2023-04-29T04:33:35;36.03;;;16.48;;
73650;SDS011;61944;52.538;6.108;2023-04-29T04:36:01;30.85;;;16.42;;
73650;SDS011;61944;52.538;6.108;2023-04-29T04:38:26;27.90;;;14.82;;
73650;SDS011;61944;52.538;6.108;2023-04-29T04:40:52;35.28;;;17.73;;
73650;SDS011;61944;52.538;6.108;2023-04-29T04:43:17;37.25;;;17.98;;
73650;SDS011;61944;52.538;6.108;2023-04-29T04:45:42;31.35;;;15.38;;
73650;SDS011;61944;52.538;6.108;2023-04-29T04:48:08;37.00;;;16.42;;
73650;SDS011;61944;52.538;6.108;2023-04-29T04:50:33;36.42;;;15.68;;
73650;SDS011;61944;52.538;6.108;2023-04-29T04:52:59;33.70;;;16.38;;
73650;SDS011;61944;52.538;6.108;2023-04-29T04:55:24;31.83;;;14.40;;
73650;SDS011;61944;52.538;6.108;2023-04-29T04:57:50;34.33;;;15.35;;
73650;SDS011;61944;52.538;6.108;2023-04-29T05:00:15;36.53;;;18.08;;
73650;SDS011;61944;52.538;6.108;2023-04-29T05:02:41;37.80;;;18.25;;
73650;SDS011;61944;52.538;6.108;2023-04-29T05:05:06;30.45;;;16.05;;
73650;SDS011;61944;52.538;6.108;2023-04-29T05:07:32;40.90;;;16.63;;
73650;SDS011;61944;52.538;6.108;2023-04-29T05:10:00;34.90;;;16.50;;
73650;SDS011;61944;52.538;6.108;2023-04-29T05:12:32;39.05;;;19.25;;
73650;SDS011;61944;52.538;6.108;2023-04-29T05:14:59;39.85;;;17.38;;
73650;SDS011;61944;52.538;6.108;2023-04-29T05:17:24;34.60;;;17.55;;
73650;SDS011;61944;52.538;6.108;2023-04-29T05:19:50;38.80;;;18.23;;
73650;SDS011;61944;52.538;6.108;2023-04-29T05:22:15;32.08;;;15.85;;
73650;SDS011;61944;52.538;6.108;2023-04-29T05:24:41;36.40;;;16.88;;
73650;SDS011;61944;52.538;6.108;2023-04-29T05:27:06;33.10;;;15.38;;
73650;SDS011;61944;52.538;6.108;2023-04-29T05:29:32;34.53;;;16.98;;
73650;SDS011;61944;52.538;6.108;2023-04-29T05:31:57;31.17;;;17.77;;
73650;SDS011;61944;52.538;6.108;2023-04-29T05:34:23;37.58;;;16.00;;
73650;SDS011;61944;52.538;6.108;2023-04-29T05:36:51;39.60;;;18.05;;
73650;SDS011;61944;52.538;6.108;2023-04-29T05:39:17;37.80;;;17.27;;
73650;SDS011;61944;52.538;6.108;2023-04-29T05:41:42;31.77;;;15.73;;
73650;SDS011;61944;52.538;6.108;2023-04-29T05:44:08;32.70;;;16.73;;
73650;SDS011;61944;52.538;6.108;2023-04-29T05:46:34;33.47;;;14.57;;
73650;SDS011;61944;52.538;6.108;2023-04-29T05:48:59;41.28;;;19.38;;
73650;SDS011;61944;52.538;6.108;2023-04-29T05:51:24;35.65;;;15.93;;
73650;SDS011;61944;52.538;6.108;2023-04-29T05:53:50;33.72;;;15.70;;
73650;SDS011;61944;52.538;6.108;2023-04-29T05:56:15;37.65;;;15.18;;
73650;SDS011;61944;52.538;6.108;2023-04-29T05:58:41;29.73;;;15.18;;
73650;SDS011;61944;52.538;6.108;2023-04-29T06:01:07;31.80;;;15.25;;
73650;SDS011;61944;52.538;6.108;2023-04-29T06:03:32;32.97;;;13.82;;
73650;SDS011;61944;52.538;6.108;2023-04-29T06:05:58;30.05;;;13.95;;
73650;SDS011;61944;52.538;6.108;2023-04-29T06:08:23;30.52;;;14.93;;
73650;SDS011;61944;52.538;6.108;2023-04-29T06:10:49;27.30;;;13.95;;
73650;SDS011;61944;52.538;6.108;2023-04-29T06:13:17;33.80;;;13.65;;
73650;SDS011;61944;52.538;6.108;2023-04-29T06:15:43;24.52;;;13.68;;
73650;SDS011;61944;52.538;6.108;2023-04-29T06:18:08;26.10;;;13.82;;
73650;SDS011;61944;52.538;6.108;2023-04-29T06:20:34;27.17;;;13.07;;
73650;SDS011;61944;52.538;6.108;2023-04-29T06:22:59;26.88;;;13.13;;
73650;SDS011;61944;52.538;6.108;2023-04-29T06:25:24;32.33;;;12.40;;
73650;SDS011;61944;52.538;6.108;2023-04-29T06:27:50;34.45;;;14.15;;
73650;SDS011;61944;52.538;6.108;2023-04-29T06:30:15;31.70;;;13.95;;
73650;SDS011;61944;52.538;6.108;2023-04-29T06:32:40;29.40;;;13.15;;
73650;SDS011;61944;52.538;6.108;2023-04-29T06:35:06;30.02;;;13.27;;
73650;SDS011;61944;52.538;6.108;2023-04-29T06:37:32;24.83;;;12.52;;
73650;SDS011;61944;52.538;6.108;2023-04-29T06:39:57;20.00;;;11.45;;
73650;SDS011;61944;52.538;6.108;2023-04-29T06:42:23;24.55;;;12.93;;
73650;SDS011;61944;52.538;6.108;2023-04-29T06:44:48;34.17;;;12.88;;
73650;SDS011;61944;52.538;6.108;2023-04-29T06:47:13;25.80;;;11.70;;
73650;SDS011;61944;52.538;6.108;2023-04-29T06:49:39;25.27;;;11.57;;
73650;SDS011;61944;52.538;6.108;2023-04-29T06:52:04;21.58;;;12.52;;
73650;SDS011;61944;52.538;6.108;2023-04-29T06:54:30;23.55;;;12.32;;
73650;SDS011;61944;52.538;6.108;2023-04-29T06:56:56;24.02;;;12.93;;
73650;SDS011;61944;52.538;6.108;2023-04-29T06:59:22;24.98;;;12.30;;
73650;SDS011;61944;52.538;6.108;2023-04-29T07:01:47;20.55;;;11.40;;
73650;SDS011;61944;52.538;6.108;2023-04-29T07:04:13;25.13;;;11.52;;
73650;SDS011;61944;52.538;6.108;2023-04-29T07:06:38;22.48;;;12.70;;
73650;SDS011;61944;52.538;6.108;2023-04-29T07:09:04;14.32;;;9.30;;
73650;SDS011;61944;52.538;6.108;2023-04-29T07:11:29;25.05;;;11.00;;
73650;SDS011;61944;52.538;6.108;2023-04-29T07:13:55;21.92;;;10.35;;
73650;SDS011;61944;52.538;6.108;2023-04-29T07:16:20;17.45;;;9.30;;
73650;SDS011;61944;52.538;6.108;2023-04-29T07:18:49;16.30;;;9.52;;
73650;SDS011;61944;52.538;6.108;2023-04-29T07:21:15;15.70;;;9.73;;
73650;SDS011;61944;52.538;6.108;2023-04-29T07:23:40;17.98;;;9.43;;
73650;SDS011;61944;52.538;6.108;2023-04-29T07:26:12;21.42;;;10.60;;
73650;SDS011;61944;52.538;6.108;2023-04-29T07:28:38;20.63;;;10.40;;
73650;SDS011;61944;52.538;6.108;2023-04-29T07:31:04;19.65;;;9.48;;
73650;SDS011;61944;52.538;6.108;2023-04-29T07:33:30;19.35;;;8.27;;
73650;SDS011;61944;52.538;6.108;2023-04-29T07:35:55;13.45;;;7.68;;
73650;SDS011;61944;52.538;6.108;2023-04-29T07:38:22;20.25;;;10.00;;
73650;SDS011;61944;52.538;6.108;2023-04-29T07:40:47;13.55;;;8.30;;
73650;SDS011;61944;52.538;6.108;2023-04-29T07:43:13;19.92;;;8.93;;
73650;SDS011;61944;52.538;6.108;2023-04-29T07:45:38;16.10;;;8.55;;
73650;SDS011;61944;52.538;6.108;2023-04-29T07:48:04;16.55;;;8.45;;
73650;SDS011;61944;52.538;6.108;2023-04-29T07:50:30;18.08;;;8.77;;
73650;SDS011;61944;52.538;6.108;2023-04-29T07:52:58;20.55;;;8.82;;
73650;SDS011;61944;52.538;6.108;2023-04-29T07:55:24;15.00;;;7.95;;
73650;SDS011;61944;52.538;6.108;2023-04-29T07:57:51;16.98;;;7.75;;
73650;SDS011;61944;52.538;6.108;2023-04-29T08:00:16;20.77;;;8.90;;
73650;SDS011;61944;52.538;6.108;2023-04-29T08:02:41;17.63;;;8.35;;
73650;SDS011;61944;52.538;6.108;2023-04-29T08:05:07;17.52;;;8.82;;
73650;SDS011;61944;52.538;6.108;2023-04-29T08:07:33;20.23;;;8.32;;
73650;SDS011;61944;52.538;6.108;2023-04-29T08:09:58;19.13;;;8.35;;
73650;SDS011;61944;52.538;6.108;2023-04-29T08:12:24;17.45;;;8.23;;
73650;SDS011;61944;52.538;6.108;2023-04-29T08:14:49;18.17;;;9.68;;
73650;SDS011;61944;52.538;6.108;2023-04-29T08:17:14;16.08;;;8.68;;
73650;SDS011;61944;52.538;6.108;2023-04-29T08:19:40;18.45;;;9.90;;
73650;SDS011;61944;52.538;6.108;2023-04-29T08:22:05;15.23;;;8.70;;
73650;SDS011;61944;52.538;6.108;2023-04-29T08:24:30;14.38;;;7.65;;
73650;SDS011;61944;52.538;6.108;2023-04-29T08:26:57;16.30;;;7.63;;
73650;SDS011;61944;52.538;6.108;2023-04-29T08:29:23;15.32;;;8.30;;
73650;SDS011;61944;52.538;6.108;2023-04-29T08:31:49;15.00;;;7.88;;
73650;SDS011;61944;52.538;6.108;2023-04-29T08:34:14;17.08;;;8.68;;
73650;SDS011;61944;52.538;6.108;2023-04-29T08:36:40;17.05;;;8.43;;
73650;SDS011;61944;52.538;6.108;2023-04-29T08:39:05;19.67;;;8.07;;
73650;SDS011;61944;52.538;6.108;2023-04-29T08:41:31;19.83;;;9.27;;
73650;SDS011;61944;52.538;6.108;2023-04-29T08:43:58;13.30;;;8.48;;
73650;SDS011;61944;52.538;6.108;2023-04-29T08:46:24;16.02;;;8.98;;
73650;SDS011;61944;52.538;6.108;2023-04-29T08:48:51;15.80;;;7.72;;
73650;SDS011;61944;52.538;6.108;2023-04-29T08:51:17;14.45;;;9.20;;
73650;SDS011;61944;52.538;6.108;2023-04-29T08:53:43;22.00;;;8.30;;
73650;SDS011;61944;52.538;6.108;2023-04-29T08:56:11;16.67;;;7.85;;
73650;SDS011;61944;52.538;6.108;2023-04-29T08:58:39;13.93;;;8.15;;
73650;SDS011;61944;52.538;6.108;2023-04-29T09:01:07;16.05;;;8.25;;
73650;SDS011;61944;52.538;6.108;2023-04-29T09:03:43;13.30;;;7.15;;
73650;SDS011;61944;52.538;6.108;2023-04-29T09:06:14;17.25;;;8.60;;
73650;SDS011;61944;52.538;6.108;2023-04-29T09:08:41;17.65;;;8.20;;
73650;SDS011;61944;52.538;6.108;2023-04-29T09:11:09;18.05;;;7.90;;
73650;SDS011;61944;52.538;6.108;2023-04-29T09:13:36;16.85;;;8.85;;
73650;SDS011;61944;52.538;6.108;2023-04-29T09:16:02;16.50;;;8.18;;
73650;SDS011;61944;52.538;6.108;2023-04-29T09:23:38;15.32;;;7.82;;
73650;SDS011;61944;52.538;6.108;2023-04-29T09:26:03;15.77;;;8.32;;
73650;SDS011;61944;52.538;6.108;2023-04-29T09:28:28;17.40;;;7.78;;
73650;SDS011;61944;52.538;6.108;2023-04-29T09:30:54;15.07;;;7.97;;
73650;SDS011;61944;52.538;6.108;2023-04-29T09:33:19;15.40;;;8.02;;
73650;SDS011;61944;52.538;6.108;2023-04-29T09:35:44;18.95;;;8.80;;
73650;SDS011;61944;52.538;6.108;2023-04-29T09:38:14;13.50;;;6.78;;
73650;SDS011;61944;52.538;6.108;2023-04-29T09:40:40;12.73;;;7.50;;
73650;SDS011;61944;52.538;6.108;2023-04-29T09:43:11;14.02;;;7.38;;
73650;SDS011;61944;52.538;6.108;2023-04-29T09:45:45;14.30;;;8.40;;
73650;SDS011;61944;52.538;6.108;2023-04-29T09:48:12;12.98;;;6.95;;
73650;SDS011;61944;52.538;6.108;2023-04-29T09:50:40;14.23;;;7.47;;
73650;SDS011;61944;52.538;6.108;2023-04-29T09:53:09;14.10;;;7.95;;
73650;SDS011;61944;52.538;6.108;2023-04-29T09:55:35;12.88;;;7.50;;
73650;SDS011;61944;52.538;6.108;2023-04-29T09:58:01;11.93;;;6.95;;
73650;SDS011;61944;52.538;6.108;2023-04-29T10:00:31;11.40;;;7.18;;
73650;SDS011;61944;52.538;6.108;2023-04-29T10:02:58;18.27;;;8.20;;
73650;SDS011;61944;52.538;6.108;2023-04-29T10:05:28;11.52;;;7.25;;
73650;SDS011;61944;52.538;6.108;2023-04-29T10:07:54;15.77;;;7.47;;
73650;SDS011;61944;52.538;6.108;2023-04-29T10:10:21;14.05;;;7.07;;
73650;SDS011;61944;52.538;6.108;2023-04-29T10:12:48;18.05;;;8.43;;
73650;SDS011;61944;52.538;6.108;2023-04-29T10:17:53;14.88;;;7.63;;
73650;SDS011;61944;52.538;6.108;2023-04-29T10:20:24;10.48;;;7.38;;
73650;SDS011;61944;52.538;6.108;2023-04-29T10:22:50;12.25;;;7.05;;
73650;SDS011;61944;52.538;6.108;2023-04-29T10:25:17;12.20;;;7.03;;
73650;SDS011;61944;52.538;6.108;2023-04-29T10:27:44;15.10;;;7.47;;
73650;SDS011;61944;52.538;6.108;2023-04-29T10:30:15;14.52;;;7.10;;
73650;SDS011;61944;52.538;6.108;2023-04-29T10:32:45;12.13;;;7.53;;
73650;SDS011;61944;52.538;6.108;2023-04-29T10:35:13;13.23;;;7.50;;
73650;SDS011;61944;52.538;6.108;2023-04-29T10:37:43;13.45;;;7.82;;
73650;SDS011;61944;52.538;6.108;2023-04-29T10:43:00;13.35;;;6.10;;
73650;SDS011;61944;52.538;6.108;2023-04-29T10:45:29;10.15;;;6.22;;
73650;SDS011;61944;52.538;6.108;2023-04-29T10:53:13;12.82;;;6.15;;
73650;SDS011;61944;52.538;6.108;2023-04-29T10:55:40;12.15;;;7.05;;
73650;SDS011;61944;52.538;6.108;2023-04-29T11:01:11;7.82;;;5.72;;
73650;SDS011;61944;52.538;6.108;2023-04-29T11:03:45;10.07;;;5.53;;
73650;SDS011;61944;52.538;6.108;2023-04-29T11:06:12;11.80;;;6.32;;
73650;SDS011;61944;52.538;6.108;2023-04-29T11:08:38;11.30;;;6.07;;
73650;SDS011;61944;52.538;6.108;2023-04-29T11:11:07;11.75;;;6.53;;
73650;SDS011;61944;52.538;6.108;2023-04-29T11:13:37;9.18;;;5.35;;
73650;SDS011;61944;52.538;6.108;2023-04-29T11:16:05;13.02;;;6.43;;
73650;SDS011;61944;52.538;6.108;2023-04-29T11:18:31;13.82;;;6.60;;
73650;SDS011;61944;52.538;6.108;2023-04-29T11:23:30;11.70;;;6.05;;
73650;SDS011;61944;52.538;6.108;2023-04-29T11:25:58;10.82;;;6.43;;
73650;SDS011;61944;52.538;6.108;2023-04-29T11:28:24;12.02;;;6.03;;
73650;SDS011;61944;52.538;6.108;2023-04-29T11:30:52;11.77;;;6.45;;
73650;SDS011;61944;52.538;6.108;2023-04-29T11:33:20;8.18;;;5.60;;
73650;SDS011;61944;52.538;6.108;2023-04-29T11:35:46;8.68;;;5.20;;
73650;SDS011;61944;52.538;6.108;2023-04-29T11:38:11;11.55;;;5.68;;
73650;SDS011;61944;52.538;6.108;2023-04-29T11:40:40;9.55;;;5.93;;
73650;SDS011;61944;52.538;6.108;2023-04-29T11:43:06;10.18;;;6.07;;
73650;SDS011;61944;52.538;6.108;2023-04-29T11:45:34;10.07;;;5.72;;
73650;SDS011;61944;52.538;6.108;2023-04-29T11:48:00;13.60;;;5.88;;
73650;SDS011;61944;52.538;6.108;2023-04-29T11:50:26;10.20;;;5.80;;
73650;SDS011;61944;52.538;6.108;2023-04-29T11:52:51;12.00;;;5.40;;
73650;SDS011;61944;52.538;6.108;2023-04-29T11:55:17;9.23;;;5.05;;
73650;SDS011;61944;52.538;6.108;2023-04-29T11:57:43;9.90;;;5.40;;
73650;SDS011;61944;52.538;6.108;2023-04-29T12:00:09;8.70;;;4.93;;
73650;SDS011;61944;52.538;6.108;2023-04-29T12:02:42;9.57;;;5.35;;
73650;SDS011;61944;52.538;6.108;2023-04-29T12:05:11;10.50;;;5.68;;
73650;SDS011;61944;52.538;6.108;2023-04-29T12:07:37;10.43;;;5.35;;
73650;SDS011;61944;52.538;6.108;2023-04-29T12:10:06;10.82;;;4.85;;
73650;SDS011;61944;52.538;6.108;2023-04-29T12:12:36;9.50;;;5.60;;
73650;SDS011;61944;52.538;6.108;2023-04-29T12:15:04;13.45;;;5.57;;
73650;SDS011;61944;52.538;6.108;2023-04-29T12:17:31;8.88;;;5.95;;
73650;SDS011;61944;52.538;6.108;2023-04-29T12:19:57;10.02;;;5.95;;
73650;SDS011;61944;52.538;6.108;2023-04-29T12:22:22;9.05;;;4.43;;
73650;SDS011;61944;52.538;6.108;2023-04-29T12:24:55;11.98;;;5.20;;
73650;SDS011;61944;52.538;6.108;2023-04-29T12:27:21;10.88;;;5.00;;
73650;SDS011;61944;52.538;6.108;2023-04-29T12:29:46;9.00;;;5.32;;
73650;SDS011;61944;52.538;6.108;2023-04-29T12:32:15;12.00;;;5.35;;
73650;SDS011;61944;52.538;6.108;2023-04-29T12:34:41;11.00;;;5.22;;
73650;SDS011;61944;52.538;6.108;2023-04-29T12:37:08;11.13;;;5.90;;
73650;SDS011;61944;52.538;6.108;2023-04-29T12:39:33;8.20;;;4.72;;
73650;SDS011;61944;52.538;6.108;2023-04-29T12:42:00;13.27;;;4.82;;
73650;SDS011;61944;52.538;6.108;2023-04-29T12:44:35;13.57;;;5.65;;
73650;SDS011;61944;52.538;6.108;2023-04-29T12:47:11;11.13;;;6.05;;
73650;SDS011;61944;52.538;6.108;2023-04-29T12:49:39;11.32;;;5.88;;
73650;SDS011;61944;52.538;6.108;2023-04-29T12:52:06;8.68;;;6.70;;
73650;SDS011;61944;52.538;6.108;2023-04-29T12:54:38;12.13;;;5.43;;
73650;SDS011;61944;52.538;6.108;2023-04-29T12:57:07;10.95;;;6.15;;
73650;SDS011;61944;52.538;6.108;2023-04-29T12:59:36;10.00;;;5.45;;
73650;SDS011;61944;52.538;6.108;2023-04-29T13:02:01;11.07;;;5.63;;
73650;SDS011;61944;52.538;6.108;2023-04-29T13:04:27;11.70;;;5.30;;
73650;SDS011;61944;52.538;6.108;2023-04-29T13:06:52;9.05;;;4.10;;
73650;SDS011;61944;52.538;6.108;2023-04-29T13:09:24;7.13;;;4.55;;
73650;SDS011;61944;52.538;6.108;2023-04-29T13:11:50;8.07;;;4.88;;
73650;SDS011;61944;52.538;6.108;2023-04-29T13:14:15;6.35;;;4.15;;
73650;SDS011;61944;52.538;6.108;2023-04-29T13:16:41;10.65;;;5.50;;
73650;SDS011;61944;52.538;6.108;2023-04-29T13:19:06;11.35;;;4.32;;
73650;SDS011;61944;52.538;6.108;2023-04-29T13:21:32;6.55;;;3.67;;
73650;SDS011;61944;52.538;6.108;2023-04-29T13:23:57;7.60;;;4.47;;
73650;SDS011;61944;52.538;6.108;2023-04-29T13:26:22;13.55;;;5.50;;
73650;SDS011;61944;52.538;6.108;2023-04-29T13:28:49;9.73;;;4.93;;
73650;SDS011;61944;52.538;6.108;2023-04-29T13:31:15;11.40;;;4.85;;
73650;SDS011;61944;52.538;6.108;2023-04-29T13:33:41;7.35;;;4.70;;
73650;SDS011;61944;52.538;6.108;2023-04-29T13:36:08;8.48;;;4.43;;
73650;SDS011;61944;52.538;6.108;2023-04-29T13:38:33;5.60;;;3.70;;
73650;SDS011;61944;52.538;6.108;2023-04-29T13:40:59;8.02;;;3.88;;
73650;SDS011;61944;52.538;6.108;2023-04-29T13:43:24;9.55;;;4.35;;
73650;SDS011;61944;52.538;6.108;2023-04-29T13:45:50;10.75;;;5.35;;
73650;SDS011;61944;52.538;6.108;2023-04-29T13:48:15;8.00;;;4.78;;
73650;SDS011;61944;52.538;6.108;2023-04-29T13:50:41;6.55;;;4.25;;
73650;SDS011;61944;52.538;6.108;2023-04-29T13:53:08;6.57;;;4.30;;
73650;SDS011;61944;52.538;6.108;2023-04-29T13:55:33;9.43;;;4.93;;
73650;SDS011;61944;52.538;6.108;2023-04-29T13:58:04;15.30;;;5.10;;
73650;SDS011;61944;52.538;6.108;2023-04-29T14:00:30;9.23;;;4.65;;
73650;SDS011;61944;52.538;6.108;2023-04-29T14:02:59;8.48;;;4.93;;
73650;SDS011;61944;52.538;6.108;2023-04-29T14:05:24;11.07;;;4.97;;
73650;SDS011;61944;52.538;6.108;2023-04-29T14:07:52;10.95;;;4.40;;
73650;SDS011;61944;52.538;6.108;2023-04-29T14:10:18;12.13;;;4.55;;
73650;SDS011;61944;52.538;6.108;2023-04-29T14:12:44;10.65;;;5.85;;
73650;SDS011;61944;52.538;6.108;2023-04-29T14:15:09;9.10;;;4.05;;
73650;SDS011;61944;52.538;6.108;2023-04-29T14:17:35;5.00;;;3.72;;
73650;SDS011;61944;52.538;6.108;2023-04-29T14:20:01;15.77;;;6.45;;
73650;SDS011;61944;52.538;6.108;2023-04-29T14:22:28;7.85;;;4.13;;
73650;SDS011;61944;52.538;6.108;2023-04-29T14:24:53;9.70;;;4.38;;
73650;SDS011;61944;52.538;6.108;2023-04-29T14:27:19;5.65;;;3.38;;
73650;SDS011;61944;52.538;6.108;2023-04-29T14:29:45;4.50;;;3.45;;
73650;SDS011;61944;52.538;6.108;2023-04-29T14:32:11;7.25;;;2.67;;
73650;SDS011;61944;52.538;6.108;2023-04-29T14:34:39;4.55;;;3.13;;
73650;SDS011;61944;52.538;6.108;2023-04-29T14:37:05;5.10;;;3.25;;
73650;SDS011;61944;52.538;6.108;2023-04-29T14:39:30;4.70;;;3.15;;
73650;SDS011;61944;52.538;6.108;2023-04-29T14:41:56;7.55;;;3.85;;
73650;SDS011;61944;52.538;6.108;2023-04-29T14:44:21;5.40;;;3.53;;
73650;SDS011;61944;52.538;6.108;2023-04-29T14:46:47;5.78;;;2.80;;
73650;SDS011;61944;52.538;6.108;2023-04-29T14:49:12;4.53;;;3.13;;
73650;SDS011;61944;52.538;6.108;2023-04-29T14:51:37;6.32;;;3.70;;
73650;SDS011;61944;52.538;6.108;2023-04-29T14:54:03;6.43;;;3.22;;
73650;SDS011;61944;52.538;6.108;2023-04-29T14:56:28;6.03;;;2.83;;
73650;SDS011;61944;52.538;6.108;2023-04-29T14:58:57;4.90;;;2.75;;
73650;SDS011;61944;52.538;6.108;2023-04-29T15:01:22;5.85;;;3.08;;
73650;SDS011;61944;52.538;6.108;2023-04-29T15:03:47;3.47;;;2.35;;